Terminal Aerodrome Forecast
Issued by NWS

Home | Current Version | Previous Version | Text Only | Print | Product List | Glossary On
Versions: 1 2 3 4 5 6 7 8 9 10 11 12 13
000
FTUS45 KRIW 050534
TAFJAC
TAF
KJAC 050534Z 0506/0606 VRB05KT P6SM FEW110 BKN200
     FM051300 21006KT P6SM VCSH SCT050 OVC080
     FM052000 22011KT P6SM VCTS SCT040CB BKN080
     FM060300 01008KT P6SM VCSH OVC060
      AMD LTD TO CLD VIS AND WIND=

USA.gov is the U.S. government's official web portal to all federal, state and local government web resources and services.